Time;durP1;ratioP1;P1;durP2;ratioP2;P2;SDS_P1;SDS_P2;PMS_P1;PMS_P2;Temp;Humidity;BMP_temperature;BMP_pressure;BME280_temperature;BME280_humidity;BME280_pressure;Samples;Min_cycle;Max_cycle;Signal;HPM_P1;HPM_P2
2023/05/08 00:01:48;;;;;;;;;17.67;17.67;;;;;16.26;70.56;101646.91;5000931;28;45292;-77
2023/05/08 00:04:13;;;;;;;;;16.00;14.67;;;;;16.13;70.36;101635.75;5019152;28;45497;-75
2023/05/08 00:06:39;;;;;;;;;16.33;14.33;;;;;16.60;70.91;101711.31;5001169;28;45316;-75
2023/05/08 00:09:04;;;;;;;;;20.00;17.00;;;;;16.51;70.85;101704.25;5001021;28;47402;-76
2023/05/08 00:11:30;;;;;;;;;12.00;10.33;;;;;16.52;70.54;101705.91;5000614;28;45932;-76
2023/05/08 00:13:55;;;;;;;;;14.33;13.00;;;;;16.46;70.80;101711.09;5018899;28;45289;-76
2023/05/08 00:16:20;;;;;;;;;18.67;15.67;;;;;16.39;70.67;101695.59;5019055;28;45653;-74
2023/05/08 00:18:46;;;;;;;;;14.00;12.00;;;;;16.44;70.64;101708.56;5001437;28;47594;-75
2023/05/08 00:21:11;;;;;;;;;12.33;12.33;;;;;16.44;70.58;101711.25;5002258;28;46300;-75
2023/05/08 00:23:36;;;;;;;;;14.33;14.33;;;;;16.34;70.84;101707.81;5001032;28;45345;-75
2023/05/08 00:26:02;;;;;;;;;13.33;12.00;;;;;16.41;70.54;101715.06;5000860;28;45592;-75
2023/05/08 00:28:27;;;;;;;;;13.67;12.67;;;;;16.47;71.00;101729.72;5000796;28;47271;-75
2023/05/08 00:30:53;;;;;;;;;12.33;12.33;;;;;16.31;70.95;101708.16;5018379;28;45388;-76
2023/05/08 00:33:18;;;;;;;;;14.00;12.00;;;;;16.25;71.07;101698.91;5000312;28;45372;-76
2023/05/08 00:35:44;;;;;;;;;12.33;12.33;;;;;15.94;71.17;101647.53;5018576;28;45593;-76
2023/05/08 00:38:10;;;;;;;;;13.67;11.00;;;;;16.19;70.86;101698.66;5017493;28;45591;-77
2023/05/08 00:40:35;;;;;;;;;11.33;11.33;;;;;16.27;71.23;101712.16;5002959;28;46134;-76
2023/05/08 00:43:01;;;;;;;;;13.33;11.33;;;;;15.55;70.69;101603.28;5004231;28;45130;-75
2023/05/08 00:45:38;;;;;;;;;11.33;11.33;;;;;16.21;71.12;101702.88;5000944;28;45250;-75
2023/05/08 00:48:04;;;;;;;;;12.67;11.00;;;;;16.19;71.13;101707.56;5000094;28;47679;-74
2023/05/08 00:50:31;;;;;;;;;11.67;11.67;;;;;16.05;70.99;101673.28;5018126;28;45674;-74
2023/05/08 00:52:59;;;;;;;;;12.00;12.00;;;;;16.20;70.81;101700.34;5000524;28;45534;-76
2023/05/08 00:55:24;;;;;;;;;11.33;11.33;;;;;16.19;71.16;101701.34;5000921;28;45272;-76
2023/05/08 00:57:51;;;;;;;;;11.33;10.33;;;;;16.12;70.96;101687.72;4999909;28;47273;-77
2023/05/08 01:00:17;;;;;;;;;13.33;12.00;;;;;16.09;70.84;101691.56;5018160;28;45237;-75
2023/05/08 01:02:44;;;;;;;;;11.67;10.00;;;;;16.16;71.20;101696.28;5000424;28;45285;-75
2023/05/08 01:05:10;;;;;;;;;17.00;16.33;;;;;16.16;71.06;101701.66;5000494;28;45337;-77
2023/05/08 01:07:35;;;;;;;;;12.00;11.67;;;;;15.36;71.06;101572.16;5017707;28;45549;-77
2023/05/08 01:10:01;;;;;;;;;11.00;11.00;;;;;16.03;71.09;101699.41;4999947;28;45420;-76
2023/05/08 01:13:03;;;;;;;;;13.00;13.00;;;;;16.07;71.06;101701.63;4999320;28;45468;-75
2023/05/08 01:15:42;;;;;;;;;10.33;9.67;;;;;15.33;71.08;101580.50;5000049;28;45303;-74
2023/05/08 01:18:16;;;;;;;;;12.00;10.33;;;;;16.07;70.88;101708.81;5017258;28;45646;-73
2023/05/08 01:21:05;;;;;;;;;10.67;10.67;;;;;16.06;71.03;101707.97;5017524;28;45431;-77
2023/05/08 01:23:39;;;;;;;;;11.33;11.33;;;;;16.04;70.99;101717.19;5000046;28;45476;-75
2023/05/08 01:26:32;;;;;;;;;17.00;12.67;;;;;16.02;70.99;101708.47;4999787;28;45177;-76
2023/05/08 01:29:32;;;;;;;;;10.67;10.67;;;;;16.00;70.97;101719.31;5017363;28;46571;-74
2023/05/08 01:32:21;;;;;;;;;14.00;10.67;;;;;15.90;71.06;101713.22;4999161;28;46333;-75
2023/05/08 01:35:11;;;;;;;;;12.00;11.67;;;;;15.95;71.04;101718.94;4999729;28;45356;-75
2023/05/08 01:37:41;;;;;;;;;14.00;12.33;;;;;14.87;70.75;101543.09;4999599;28;45530;-74
2023/05/08 01:40:16;;;;;;;;;13.67;13.67;;;;;14.74;71.24;101526.56;5016981;28;46044;-75
2023/05/08 01:43:06;;;;;;;;;17.00;13.33;;;;;15.88;71.01;101711.69;4999041;28;45388;-75
2023/05/08 01:45:38;;;;;;;;;18.33;15.00;;;;;15.82;70.85;101707.78;4999413;28;45382;-75
2023/05/08 01:48:07;;;;;;;;;14.00;14.00;;;;;15.89;71.09;101719.56;5017404;28;45330;-75
2023/05/08 01:50:39;;;;;;;;;14.00;11.33;;;;;15.89;71.10;101724.94;5016033;28;46358;-73
2023/05/08 01:53:12;;;;;;;;;14.33;13.00;;;;;15.89;71.22;101718.72;4999370;28;46689;-74
2023/05/08 01:55:39;;;;;;;;;12.00;12.00;;;;;15.55;71.29;101657.75;5017272;28;45372;-77
2023/05/08 01:58:09;;;;;;;;;9.00;9.00;;;;;15.92;71.12;101721.09;4999035;28;45796;-75
2023/05/08 02:00:38;;;;;;;;;13.00;12.00;;;;;15.26;70.91;101609.75;5017008;28;46081;-75
2023/05/08 02:03:06;;;;;;;;;13.00;13.00;;;;;15.79;70.95;101714.28;4999306;28;45314;-76
2023/05/08 02:05:36;;;;;;;;;17.00;16.00;;;;;15.71;71.30;101708.00;5018370;28;45503;-75
2023/05/08 02:08:02;;;;;;;;;14.00;13.00;;;;;15.62;71.31;101701.75;4999278;28;45567;-76
2023/05/08 02:10:29;;;;;;;;;16.00;14.00;;;;;15.68;71.63;101717.22;4998646;28;47727;-76
2023/05/08 02:12:57;;;;;;;;;14.67;13.33;;;;;15.67;71.59;101712.84;4998465;28;45454;-77
2023/05/08 02:15:25;;;;;;;;;17.33;15.67;;;;;15.25;71.39;101634.88;5016790;28;45558;-76
2023/05/08 02:17:54;;;;;;;;;15.67;13.67;;;;;15.72;71.35;101709.69;5017163;28;45488;-76
2023/05/08 02:20:21;;;;;;;;;17.00;12.67;;;;;15.64;71.08;101696.22;4998930;28;47532;-76
2023/05/08 02:22:50;;;;;;;;;15.67;15.67;;;;;15.81;71.49;101732.88;5016866;28;45219;-75
2023/05/08 02:25:17;;;;;;;;;16.00;16.00;;;;;15.55;71.32;101697.94;4999193;28;45439;-76
2023/05/08 02:27:45;;;;;;;;;15.67;15.67;;;;;15.57;71.63;101703.16;5001874;28;45336;-75
2023/05/08 02:30:16;;;;;;;;;14.00;13.33;;;;;15.67;71.74;101720.88;5018777;28;45338;-77
2023/05/08 02:32:43;;;;;;;;;14.00;12.33;;;;;15.14;71.61;101637.75;4998763;28;45487;-75
2023/05/08 02:35:14;;;;;;;;;18.33;16.33;;;;;15.67;71.66;101728.94;5016478;28;45424;-74
2023/05/08 02:37:46;;;;;;;;;13.33;12.00;;;;;15.66;71.98;101723.72;4998751;28;45595;-75
2023/05/08 02:40:13;;;;;;;;;19.00;17.33;;;;;15.63;71.95;101721.34;5016413;28;45551;-78
2023/05/08 02:42:39;;;;;;;;;19.67;16.67;;;;;15.10;71.47;101628.34;5015999;28;45201;-74
2023/05/08 02:45:05;;;;;;;;;21.33;19.33;;;;;15.69;71.82;101718.91;5016422;28;45577;-75
2023/05/08 02:47:45;;;;;;;;;19.00;18.33;;;;;15.58;71.48;101700.31;4998677;28;45281;-77
2023/05/08 02:50:26;;;;;;;;;15.00;14.33;;;;;15.77;71.13;101729.69;5016444;28;46512;-77
2023/05/08 02:52:57;;;;;;;;;20.33;17.33;;;;;15.80;70.93;101736.56;5016202;28;45373;-75
2023/05/08 02:55:33;;;;;;;;;19.67;18.33;;;;;15.81;70.79;101732.88;4998585;28;45376;-75
2023/05/08 02:58:30;;;;;;;;;19.67;18.33;;;;;15.81;70.67;101727.53;5016348;28;45599;-74
2023/05/08 03:01:06;;;;;;;;;19.00;18.00;;;;;15.80;70.73;101725.84;4970999;28;48062;-75
2023/05/08 03:03:43;;;;;;;;;18.33;17.00;;;;;15.63;70.22;101698.06;5001791;28;46216;-75
2023/05/08 03:06:12;;;;;;;;;20.00;20.00;;;;;15.72;70.12;101709.69;5001838;28;45290;-74
2023/05/08 03:08:39;;;;;;;;;19.67;17.33;;;;;15.80;70.26;101731.22;5001801;28;45273;-74
2023/05/08 03:11:11;;;;;;;;;17.67;17.67;;;;;15.84;70.21;101727.25;5000984;28;47527;-76
2023/05/08 03:13:39;;;;;;;;;23.33;18.33;;;;;15.82;70.09;101723.88;5001468;28;45521;-74
2023/05/08 03:16:15;;;;;;;;;19.00;18.00;;;;;15.74;70.02;101713.06;5001808;28;45401;-76
2023/05/08 03:18:48;;;;;;;;;19.67;18.33;;;;;15.77;69.91;101715.44;5001775;28;45628;-74
2023/05/08 03:21:18;;;;;;;;;17.33;17.33;;;;;15.82;69.73;101729.25;5019422;28;46350;-75
2023/05/08 03:23:46;;;;;;;;;18.67;17.67;;;;;15.75;69.59;101717.44;5019401;28;45408;-74
2023/05/08 03:26:18;;;;;;;;;16.00;14.67;;;;;15.17;69.47;101616.03;5019231;28;45308;-74
2023/05/08 03:28:46;;;;;;;;;22.00;19.67;;;;;15.75;69.89;101722.78;5001658;28;45411;-77
2023/05/08 03:31:15;;;;;;;;;25.33;19.33;;;;;15.28;70.00;101663.19;5001115;28;47495;-75
2023/05/08 03:33:42;;;;;;;;;21.33;18.67;;;;;15.64;70.04;101712.31;5019113;28;45448;-76
2023/05/08 03:36:08;;;;;;;;;28.00;21.67;;;;;15.68;70.05;101705.66;5001163;28;45321;-75
2023/05/08 03:38:34;;;;;;;;;20.67;19.33;;;;;15.71;70.14;101721.41;5019247;28;45619;-75
2023/05/08 03:41:00;;;;;;;;;22.33;18.33;;;;;15.60;69.88;101702.88;5000627;28;47716;-80
2023/05/08 03:43:27;;;;;;;;;22.33;21.33;;;;;15.05;69.46;101622.63;5018995;28;45810;-75
2023/05/08 03:45:55;;;;;;;;;24.67;21.67;;;;;15.57;69.74;101716.56;5019084;28;45386;-76
2023/05/08 03:48:21;;;;;;;;;22.33;21.67;;;;;15.02;69.74;101617.56;5001122;28;45655;-75
2023/05/08 03:50:47;;;;;;;;;23.33;18.00;;;;;15.54;69.79;101720.38;5000759;28;47816;-76
2023/05/08 03:53:13;;;;;;;;;23.00;21.33;;;;;15.63;70.03;101730.25;5000891;28;45512;-75
2023/05/08 03:55:40;;;;;;;;;23.33;21.00;;;;;15.60;69.83;101725.16;5001058;28;45558;-76
2023/05/08 03:58:31;;;;;;;;;24.67;22.00;;;;;15.66;69.71;101724.56;5000929;28;45462;-75
2023/05/08 04:01:39;;;;;;;;;28.33;22.67;;;;;15.63;69.94;101732.91;5000783;28;48523;-74
2023/05/08 04:04:16;;;;;;;;;23.67;22.33;;;;;15.66;69.86;101737.13;5018669;28;45352;-74
2023/05/08 04:07:12;;;;;;;;;21.67;21.67;;;;;15.03;69.85;101636.16;5019047;28;45238;-75
2023/05/08 04:10:01;;;;;;;;;24.33;23.00;;;;;15.38;69.83;101707.66;5000994;28;45424;-77
2023/05/08 04:12:45;;;;;;;;;30.33;25.33;;;;;15.47;69.93;101732.72;5017960;28;46694;-76
2023/05/08 04:15:23;;;;;;;;;31.00;30.33;;;;;15.34;69.75;101703.59;5020978;28;45543;-75
2023/05/08 04:17:53;;;;;;;;;33.33;26.67;;;;;15.34;69.73;101706.28;5021536;28;45443;-74
2023/05/08 04:20:20;;;;;;;;;33.00;26.00;;;;;15.42;69.58;101717.09;5001109;28;45381;-75
2023/05/08 04:22:48;;;;;;;;;28.33;22.67;;;;;15.37;69.32;101708.66;5000374;28;48767;-75
2023/05/08 04:25:16;;;;;;;;;27.33;23.00;;;;;15.31;69.52;101690.50;5000358;28;46361;-76
2023/05/08 04:27:43;;;;;;;;;29.00;23.33;;;;;15.28;69.87;101706.06;5018336;28;45460;-77
2023/05/08 04:30:09;;;;;;;;;26.00;21.67;;;;;15.24;69.53;101685.91;5018678;28;45544;-76
2023/05/08 04:32:36;;;;;;;;;22.67;18.33;;;;;15.37;69.37;101714.00;5000070;28;46539;-74
2023/05/08 04:35:02;;;;;;;;;28.67;23.67;;;;;15.25;68.88;101693.81;5000511;28;45534;-75
2023/05/08 04:37:32;;;;;;;;;25.67;23.33;;;;;15.40;69.34;101711.03;5018384;28;45265;-74
2023/05/08 04:39:57;;;;;;;;;25.67;22.67;;;;;15.47;69.40;101720.16;5000679;28;45531;-76
2023/05/08 04:42:24;;;;;;;;;24.00;20.00;;;;;15.30;68.87;101691.50;5017692;28;45349;-75
2023/05/08 04:44:50;;;;;;;;;22.33;19.67;;;;;15.32;69.33;101696.72;4999503;28;45527;-75
2023/05/08 04:47:16;;;;;;;;;20.33;19.33;;;;;14.69;69.06;101609.16;5017904;28;45427;-74
2023/05/08 04:49:41;;;;;;;;;24.33;20.67;;;;;15.38;69.25;101720.22;5000060;28;45314;-75
2023/05/08 04:52:07;;;;;;;;;25.00;19.67;;;;;15.43;69.40;101728.66;4999631;28;48403;-74
2023/05/08 04:54:32;;;;;;;;;22.33;20.33;;;;;15.42;69.66;101727.81;5017934;28;45460;-76
2023/05/08 04:56:58;;;;;;;;;25.67;23.00;;;;;15.42;69.38;101725.13;4999772;28;45392;-74
2023/05/08 04:59:26;;;;;;;;;30.00;24.33;;;;;15.33;69.28;101696.56;5000172;28;45266;-74
2023/05/08 05:01:51;;;;;;;;;26.67;23.67;;;;;15.40;69.04;101708.34;4999564;28;47221;-75
2023/05/08 05:04:17;;;;;;;;;20.33;18.67;;;;;15.36;68.92;101719.53;4999897;28;46065;-74
2023/05/08 05:06:43;;;;;;;;;24.00;20.67;;;;;15.22;69.30;101710.19;5000180;28;45203;-73
2023/05/08 05:09:09;;;;;;;;;26.33;23.67;;;;;15.24;69.70;101710.88;5000722;28;45251;-75
2023/05/08 05:11:34;;;;;;;;;24.00;23.67;;;;;15.28;69.62;101730.16;5016956;28;46912;-74
2023/05/08 05:14:00;;;;;;;;;25.67;22.33;;;;;15.24;70.05;101734.16;5017131;28;45409;-76
2023/05/08 05:16:26;;;;;;;;;24.00;21.33;;;;;15.23;69.66;101741.34;5017607;28;45230;-75
2023/05/08 05:18:52;;;;;;;;;21.67;20.00;;;;;15.33;69.57;101752.81;4999839;28;45527;-76
2023/05/08 05:21:17;;;;;;;;;23.33;23.33;;;;;15.19;69.71;101742.59;5001166;28;48463;-74
2023/05/08 05:23:42;;;;;;;;;20.33;20.33;;;;;14.72;69.38;101659.72;5017767;28;45499;-74
2023/05/08 05:26:08;;;;;;;;;21.67;19.33;;;;;15.14;69.16;101734.19;5017115;28;45432;-73
2023/05/08 05:28:33;;;;;;;;;15.67;13.00;;;;;15.20;68.53;101749.66;5017512;28;45501;-75
2023/05/08 05:30:59;;;;;;;;;18.33;17.67;;;;;15.12;68.34;101742.38;4999411;28;48479;-74
2023/05/08 05:33:24;;;;;;;;;19.33;17.67;;;;;15.20;68.89;101768.41;5018274;28;45447;-74
2023/05/08 05:35:50;;;;;;;;;20.00;16.67;;;;;15.17;69.23;101769.53;5002126;28;45345;-75
2023/05/08 05:38:16;;;;;;;;;17.33;15.67;;;;;15.19;69.12;101761.34;5001987;28;45353;-74
2023/05/08 05:40:41;;;;;;;;;21.00;17.00;;;;;15.39;69.21;101768.28;4999463;28;47690;-75
2023/05/08 05:43:06;;;;;;;;;18.00;16.33;;;;;15.46;68.80;101769.41;5017117;28;45316;-76
2023/05/08 05:45:32;;;;;;;;;18.33;16.67;;;;;15.40;68.22;101751.22;5017987;28;45188;-74
2023/05/08 05:47:57;;;;;;;;;16.00;16.00;;;;;15.65;68.28;101773.81;5000650;28;45440;-75
2023/05/08 05:50:23;;;;;;;;;22.00;18.00;;;;;15.56;68.05;101750.56;4999065;28;47340;-74
2023/05/08 05:52:48;;;;;;;;;21.33;19.00;;;;;15.64;67.72;101757.88;4999379;28;45444;-75
2023/05/08 05:55:13;;;;;;;;;21.00;18.00;;;;;15.82;68.26;101774.81;4999096;28;45500;-75
2023/05/08 05:57:40;;;;;;;;;17.67;16.33;;;;;15.89;68.27;101775.88;5016667;28;45469;-74
2023/05/08 06:00:06;;;;;;;;;22.67;21.33;;;;;15.80;67.51;101756.19;5016768;28;46274;-75
2023/05/08 06:02:34;;;;;;;;;18.33;18.00;;;;;15.86;67.30;101773.53;5023110;28;45337;-75
2023/05/08 06:04:59;;;;;;;;;18.33;17.33;;;;;15.82;67.37;101769.47;5003515;28;45358;-76
2023/05/08 06:07:25;;;;;;;;;25.67;24.33;;;;;15.93;67.58;101777.25;4999202;28;45559;-75
2023/05/08 06:09:51;;;;;;;;;17.00;16.33;;;;;15.94;67.48;101784.31;4998847;28;47460;-75
2023/05/08 06:12:17;;;;;;;;;18.00;17.00;;;;;15.42;66.88;101684.94;4998379;28;45954;-74
2023/05/08 06:14:43;;;;;;;;;17.50;16.50;;;;;16.03;66.83;101796.81;4998945;28;45313;-76
2023/05/08 06:17:08;;;;;;;;;18.67;17.67;;;;;16.06;67.00;101795.66;4999099;28;45620;-75
2023/05/08 06:19:34;;;;;;;;;15.67;13.00;;;;;15.94;66.81;101787.00;4998721;28;48579;-75
2023/05/08 06:21:59;;;;;;;;;16.67;15.00;;;;;16.08;66.23;101799.03;5017080;28;45172;-74
2023/05/08 06:24:25;;;;;;;;;21.33;19.33;;;;;15.96;65.86;101806.44;5017375;28;45591;-76
2023/05/08 06:26:50;;;;;;;;;11.00;9.00;;;;;15.84;66.91;101805.00;5016910;28;45428;-76
2023/05/08 06:29:15;;;;;;;;;15.33;12.33;;;;;15.74;66.75;101801.53;5016681;28;45679;-74
2023/05/08 06:31:41;;;;;;;;;23.00;17.33;;;;;15.61;66.95;101784.97;4998995;28;45199;-76
2023/05/08 06:34:06;;;;;;;;;23.00;17.33;;;;;15.61;66.70;101795.69;4998807;28;45403;-75
2023/05/08 06:36:32;;;;;;;;;19.67;13.67;;;;;15.61;67.14;101806.41;5018021;28;45384;-76
2023/05/08 06:38:57;;;;;;;;;18.33;14.33;;;;;15.38;66.95;101758.56;5019814;28;45575;-75
2023/05/08 06:41:22;;;;;;;;;19.33;17.33;;;;;15.71;67.38;101804.53;5002039;28;46225;-75
2023/05/08 06:43:48;;;;;;;;;19.67;17.33;;;;;15.87;67.34;101814.59;5020850;28;45310;-76
2023/05/08 06:46:13;;;;;;;;;16.00;16.00;;;;;15.98;67.02;101811.66;5026750;28;45587;-76
2023/05/08 06:48:38;;;;;;;;;16.00;16.00;;;;;16.10;66.69;101813.97;5008506;28;47505;-76
2023/05/08 06:51:04;;;;;;;;;18.67;15.00;;;;;15.96;65.44;101778.78;5010758;28;45444;-76
2023/05/08 06:53:29;;;;;;;;;16.00;13.00;;;;;16.06;65.61;101796.50;5004780;28;45795;-76
2023/05/08 06:55:57;;;;;;;;;21.33;16.33;;;;;15.52;65.80;101706.28;5002160;28;45351;-75
2023/05/08 06:58:23;;;;;;;;;19.33;15.00;;;;;16.23;65.53;101810.91;5001553;28;47479;-77
2023/05/08 07:00:48;;;;;;;;;15.33;14.67;;;;;14.66;65.57;101568.47;5019689;28;45198;-76
2023/05/08 07:03:14;;;;;;;;;20.67;17.33;;;;;16.21;65.34;101799.47;5002307;28;45411;-75
2023/05/08 07:05:40;;;;;;;;;17.00;17.00;;;;;16.05;65.44;101776.03;5020023;28;45415;-75
2023/05/08 07:08:05;;;;;;;;;17.00;14.67;;;;;16.07;65.41;101800.03;5001628;28;47066;-75
2023/05/08 07:10:30;;;;;;;;;16.00;15.33;;;;;16.29;65.43;101820.16;5001623;28;45644;-77
2023/05/08 07:12:56;;;;;;;;;16.33;15.67;;;;;16.30;65.16;101824.53;5019534;28;45466;-77
2023/05/08 07:15:21;;;;;;;;;16.67;14.00;;;;;16.28;65.34;101819.31;5020510;28;45286;-75
2023/05/08 07:17:46;;;;;;;;;13.67;13.67;;;;;16.35;65.52;101832.97;5002256;28;47620;-76
2023/05/08 07:20:12;;;;;;;;;15.67;14.67;;;;;16.39;64.75;101820.91;5001687;28;45325;-76
2023/05/08 07:22:37;;;;;;;;;15.67;14.00;;;;;16.49;63.94;101834.25;5001758;28;45578;-74
2023/05/08 07:25:03;;;;;;;;;11.00;11.00;;;;;16.24;64.60;101798.34;5002356;28;45356;-76
2023/05/08 07:27:28;;;;;;;;;17.00;15.33;;;;;16.46;64.61;101835.41;5001220;28;46955;-75
2023/05/08 07:29:56;;;;;;;;;16.00;15.00;;;;;16.53;64.52;101831.09;5001656;28;46468;-76
2023/05/08 07:32:21;;;;;;;;;14.67;11.67;;;;;16.59;63.92;101835.81;5001410;28;45447;-76
2023/05/08 07:34:47;;;;;;;;;17.67;14.33;;;;;16.67;64.17;101852.06;5019466;28;45252;-75
2023/05/08 07:37:12;;;;;;;;;15.33;14.67;;;;;16.67;63.91;101844.00;5001495;28;48400;-74
2023/05/08 07:39:38;;;;;;;;;14.33;11.33;;;;;16.77;63.94;101843.03;5019340;28;45281;-76
2023/05/08 07:42:03;;;;;;;;;15.00;15.00;;;;;16.78;64.00;101842.88;5001164;28;45360;-75
2023/05/08 07:44:31;;;;;;;;;14.33;12.33;;;;;16.94;63.24;101850.19;5001518;28;45568;-74
2023/05/08 07:46:57;;;;;;;;;10.00;10.00;;;;;17.05;62.80;101857.16;4995806;28;47380;-75
2023/05/08 07:49:22;;;;;;;;;14.67;14.00;;;;;17.14;62.65;101857.03;5001499;28;45571;-75
2023/05/08 07:51:47;;;;;;;;;13.33;11.67;;;;;17.13;61.79;101827.63;5020033;28;45444;-74
2023/05/08 07:54:13;;;;;;;;;10.00;9.00;;;;;17.39;61.79;101859.84;4998950;28;45459;-77
2023/05/08 07:56:38;;;;;;;;;9.00;7.00;;;;;17.46;61.02;101866.28;4999922;28;48552;-75
2023/05/08 07:59:03;;;;;;;;;16.00;14.33;;;;;17.51;60.30;101834.34;5018616;28;45328;-75
2023/05/08 08:01:29;;;;;;;;;11.67;10.00;;;;;17.81;60.02;101857.16;5018626;28;45487;-76
2023/05/08 08:03:54;;;;;;;;;11.67;10.67;;;;;18.07;59.33;101859.75;5017589;28;45476;-76
2023/05/08 08:06:20;;;;;;;;;12.00;10.00;;;;;18.29;58.87;101860.97;4998139;28;48348;-76
2023/05/08 08:08:45;;;;;;;;;12.33;11.67;;;;;18.36;58.32;101857.41;4999769;28;45742;-77
2023/05/08 08:11:10;;;;;;;;;18.00;16.33;;;;;18.42;58.16;101867.53;5000189;28;45629;-76
2023/05/08 08:13:36;;;;;;;;;12.00;10.00;;;;;18.57;57.74;101856.91;5000459;28;45651;-77
2023/05/08 08:16:03;;;;;;;;;12.67;11.67;;;;;18.67;57.68;101864.88;5018340;28;45595;-76
2023/05/08 08:18:28;;;;;;;;;12.67;11.00;;;;;18.72;57.39;101865.19;4999868;28;45348;-77
2023/05/08 08:20:54;;;;;;;;;14.33;13.00;;;;;18.70;57.27;101851.06;5018947;28;45242;-77
2023/05/08 08:23:19;;;;;;;;;12.00;12.00;;;;;18.66;56.76;101855.09;5019465;28;45301;-80
2023/05/08 08:25:44;;;;;;;;;13.33;13.33;;;;;18.27;56.76;101785.75;5000234;28;45883;-78
2023/05/08 08:28:10;;;;;;;;;13.00;13.00;;;;;18.81;57.26;101864.16;5017559;28;45525;-78
2023/05/08 08:30:35;;;;;;;;;16.67;15.67;;;;;18.79;56.86;101866.19;5000559;28;45388;-78
2023/05/08 08:33:01;;;;;;;;;17.33;12.00;;;;;18.74;56.34;101852.38;5000421;28;45395;-75
2023/05/08 08:35:28;;;;;;;;;13.00;12.67;;;;;17.85;56.79;101707.88;5000319;28;46308;-71
2023/05/08 08:37:56;;;;;;;;;12.33;12.33;;;;;18.46;56.54;101804.25;5018411;28;45494;-75
2023/05/08 08:40:22;;;;;;;;;13.67;13.00;;;;;18.62;56.76;101826.75;5019312;28;45238;-75
2023/05/08 08:42:47;;;;;;;;;15.67;15.00;;;;;18.79;56.60;101855.41;5016759;28;45246;-76
2023/05/08 08:45:12;;;;;;;;;16.00;13.33;;;;;18.38;56.31;101785.38;5017789;28;45475;-74
2023/05/08 08:47:41;;;;;;;;;10.75;9.50;;;;;18.60;56.85;101807.25;5000110;28;45513;-78
2023/05/08 08:50:08;;;;;;;;;10.33;10.33;;;;;18.91;56.52;101867.53;5000482;28;45557;-76
2023/05/08 08:52:50;;;;;;;;;10.25;9.00;;;;;18.99;56.68;101880.97;5002106;28;45314;-77
2023/05/08 08:55:17;;;;;;;;;12.00;11.33;;;;;18.95;56.33;101876.94;5018500;28;46445;-77
2023/05/08 08:58:15;;;;;;;;;17.33;13.00;;;;;19.06;56.17;101878.44;4999752;28;46155;-76
2023/05/08 09:00:40;;;;;;;;;11.00;9.67;;;;;19.05;56.19;101863.28;4996406;28;45266;-77
2023/05/08 09:03:09;;;;;;;;;10.33;9.33;;;;;19.11;55.87;101876.06;5017982;28;45300;-74
2023/05/08 09:05:35;;;;;;;;;13.33;12.00;;;;;19.10;55.61;101875.22;5018109;28;46482;-78
2023/05/08 09:08:01;;;;;;;;;10.33;9.33;;;;;19.10;55.72;101872.53;5017965;28;45828;-74
2023/05/08 09:10:27;;;;;;;;;11.00;10.00;;;;;18.92;55.86;101853.03;4999577;28;45345;-77
2023/05/08 09:12:52;;;;;;;;;11.00;9.00;;;;;18.58;55.55;101798.50;5017482;28;45434;-73
2023/05/08 09:15:18;;;;;;;;;17.33;17.33;;;;;18.98;55.79;101873.06;5017193;28;45767;-74
2023/05/08 09:17:43;;;;;;;;;14.33;12.67;;;;;18.84;55.73;101859.28;5000231;28;46478;-72
2023/05/08 09:20:10;;;;;;;;;15.00;13.00;;;;;18.93;56.01;101873.56;4991224;28;45474;-74
2023/05/08 09:22:36;;;;;;;;;8.67;8.67;;;;;18.77;56.05;101874.44;5015670;28;45405;-77
2023/05/08 09:25:02;;;;;;;;;18.00;12.67;;;;;18.80;56.42;101873.25;5004201;28;46837;-75
2023/05/08 09:27:29;;;;;;;;;10.33;9.00;;;;;18.32;56.48;101799.53;4985384;28;46181;-74
2023/05/08 09:30:06;;;;;;;;;9.33;8.33;;;;;18.13;56.41;101773.81;4985049;28;45531;-75
2023/05/08 09:32:32;;;;;;;;;11.33;8.67;;;;;18.47;56.54;101838.25;4998625;28;45310;-75
2023/05/08 09:34:58;;;;;;;;;12.67;12.00;;;;;18.67;57.00;101873.78;5017842;28;45397;-73
2023/05/08 09:37:25;;;;;;;;;10.33;7.33;;;;;18.44;56.93;101846.66;5019601;28;45287;-77
2023/05/08 09:39:50;;;;;;;;;10.67;9.67;;;;;18.45;56.92;101853.72;4996634;28;45460;-78
2023/05/08 09:42:16;;;;;;;;;9.67;9.67;;;;;18.42;57.14;101851.38;4996764;28;45640;-78
2023/05/08 09:44:50;;;;;;;;;13.33;11.33;;;;;18.38;57.25;101841.09;4980047;28;47749;-77
2023/05/08 09:47:20;;;;;;;;;9.33;9.33;;;;;18.27;57.75;101818.06;4979987;28;45422;-78
2023/05/08 09:50:21;;;;;;;;;10.33;10.33;;;;;18.69;57.66;101865.53;4980182;28;45508;-77
2023/05/08 09:52:48;;;;;;;;;10.00;9.00;;;;;18.80;57.03;101868.69;4882554;29;45624;-76
2023/05/08 09:55:13;;;;;;;;;10.00;9.00;;;;;19.39;56.35;101850.34;4986997;28;46771;-76
2023/05/08 09:57:55;;;;;;;;;11.33;11.33;;;;;20.28;52.92;101811.22;4999051;28;45302;-78
2023/05/08 10:00:21;;;;;;;;;8.33;7.00;;;;;21.44;51.05;101845.03;4999034;28;45442;-76
2023/05/08 10:03:01;;;;;;;;;10.00;9.33;;;;;21.99;48.45;101832.75;4997751;28;45734;-78
2023/05/08 10:05:30;;;;;;;;;10.67;8.33;;;;;22.55;47.91;101849.97;5015306;28;45536;-77
2023/05/08 10:08:17;;;;;;;;;7.33;6.33;;;;;22.46;47.05;101748.19;4993715;28;46542;-76
2023/05/08 10:10:43;;;;;;;;;9.67;9.67;;;;;23.09;46.33;101807.81;5006837;28;45412;-77
2023/05/08 10:13:08;;;;;;;;;9.33;8.33;;;;;23.10;44.42;101821.19;4992382;28;45609;-76
2023/05/08 10:15:37;;;;;;;;;8.33;8.33;;;;;22.89;45.31;101826.69;4998278;28;49026;-76
2023/05/08 10:18:07;;;;;;;;;8.33;8.33;;;;;22.72;45.24;101810.69;4992151;28;46049;-79
2023/05/08 10:20:36;;;;;;;;;10.75;10.25;;;;;22.45;45.63;101784.44;5016920;28;45472;-75
2023/05/08 10:23:06;;;;;;;;;10.33;7.00;;;;;22.62;46.20;101812.06;4999343;28;45541;-77
2023/05/08 10:25:34;;;;;;;;;9.00;9.00;;;;;22.50;45.06;101814.50;4999416;28;48683;-75
2023/05/08 10:28:16;;;;;;;;;9.67;8.67;;;;;22.29;45.91;101825.38;4993953;28;46177;-74
2023/05/08 10:30:48;;;;;;;;;14.33;11.00;;;;;22.06;45.34;101807.44;4989526;28;45319;-78
2023/05/08 10:33:18;;;;;;;;;11.33;11.33;;;;;22.03;46.71;101807.81;4999606;28;45479;-75
2023/05/08 10:35:44;;;;;;;;;6.33;6.33;;;;;22.14;47.04;101814.59;4997400;28;48046;-78
2023/05/08 10:38:10;;;;;;;;;9.00;8.00;;;;;22.14;47.03;101807.31;5015148;28;45346;-76
2023/05/08 10:40:36;;;;;;;;;9.67;9.67;;;;;22.30;46.71;101816.22;4998976;28;45357;-77
2023/05/08 10:43:04;;;;;;;;;9.00;6.00;;;;;22.24;45.80;101792.63;4998965;28;45511;-77
2023/05/08 10:45:30;;;;;;;;;9.33;8.00;;;;;22.25;45.76;101795.13;4998972;28;48102;-79
2023/05/08 10:48:15;;;;;;;;;12.00;10.67;;;;;22.40;46.36;101808.56;4998630;28;45702;-77
2023/05/08 10:50:59;;;;;;;;;14.00;9.33;;;;;22.35;46.17;101809.16;4999791;28;45475;-78
2023/05/08 10:53:49;;;;;;;;;6.75;6.75;;;;;22.31;46.45;101793.50;4998605;28;45459;-77
2023/05/08 10:56:15;;;;;;;;;6.00;6.00;;;;;22.29;45.43;101795.56;4998430;28;47644;-77
2023/05/08 10:58:40;;;;;;;;;8.50;6.75;;;;;22.07;46.00;101765.78;4991237;28;45409;-79
2023/05/08 11:01:06;;;;;;;;;6.25;6.00;;;;;22.25;46.22;101805.13;4979281;28;45255;-78
2023/05/08 11:03:37;;;;;;;;;5.50;5.50;;;;;22.09;46.51;101782.69;4979135;28;45485;-73
2023/05/08 11:06:03;;;;;;;;;7.75;6.75;;;;;22.13;46.79;101765.00;4996030;28;45457;-77
2023/05/08 11:08:31;;;;;;;;;6.25;6.25;;;;;22.29;46.37;101780.16;4996233;28;45252;-73
2023/05/08 11:13:28;;;;;;;;;12.50;11.75;;;;;22.42;46.81;101769.41;4996845;28;45538;-76
2023/05/08 11:15:54;;;;;;;;;14.33;8.67;;;;;22.48;46.49;101767.78;4993688;28;47740;-74
2023/05/08 11:18:21;;;;;;;;;7.00;7.00;;;;;22.48;45.55;101770.50;4981910;28;45927;-75
2023/05/08 11:21:03;;;;;;;;;8.33;7.33;;;;;21.97;45.85;101688.59;4989686;28;45426;-77
2023/05/08 11:23:32;;;;;;;;;8.00;7.00;;;;;22.34;46.00;101747.88;5000442;28;45365;-75